Time;durP1;ratioP1;P1;durP2;ratioP2;P2;SDS_P1;SDS_P2;PMS_P1;PMS_P2;Temp;Humidity;BMP_temperature;BMP_pressure;BME280_temperature;BME280_humidity;BME280_pressure;Samples;Min_cycle;Max_cycle;Signal;HPM_P1;HPM_P2
2022/04/10 00:00:13;;;;;;;7.00;1.80;;;2.40;99.90;;;;;;4808469;29;20066;-68
2022/04/10 00:02:39;;;;;;;8.07;2.20;;;2.40;99.90;;;;;;4824035;29;20058;-67
2022/04/10 00:05:05;;;;;;;8.75;2.08;;;2.40;99.90;;;;;;4807947;29;20061;-67
2022/04/10 00:07:31;;;;;;;11.05;2.45;;;2.30;99.90;;;;;;4823855;29;20058;-69
2022/04/10 00:09:57;;;;;;;7.10;2.10;;;2.30;99.90;;;;;;4820090;29;20054;-67
2022/04/10 00:12:22;;;;;;;4.72;1.70;;;2.40;99.90;;;;;;4789503;29;20474;-67
2022/04/10 00:14:48;;;;;;;8.55;2.33;;;2.60;99.90;;;;;;4805927;29;20066;-69
2022/04/10 00:17:14;;;;;;;12.60;2.10;;;2.30;99.90;;;;;;4789861;29;20057;-67
2022/04/10 00:19:40;;;;;;;6.40;2.00;;;2.30;99.90;;;;;;4803572;29;20182;-68
2022/04/10 00:22:06;;;;;;;9.88;1.80;;;2.30;99.90;;;;;;4807865;29;20427;-68
2022/04/10 00:24:32;;;;;;;6.03;1.98;;;2.30;99.90;;;;;;4813113;29;20131;-67
2022/04/10 00:26:57;;;;;;;6.88;1.60;;;2.20;99.90;;;;;;4822761;29;20055;-69
2022/04/10 00:29:23;;;;;;;10.73;2.28;;;2.20;99.90;;;;;;4822921;29;20050;-68
2022/04/10 00:31:48;;;;;;;11.98;2.30;;;2.20;99.90;;;;;;4822744;29;20200;-68
2022/04/10 00:34:14;;;;;;;8.05;1.77;;;2.10;99.90;;;;;;4821404;29;20061;-68
2022/04/10 00:36:40;;;;;;;5.68;1.80;;;2.10;99.90;;;;;;4807151;29;20065;-68
2022/04/10 00:39:05;;;;;;;6.80;1.52;;;2.10;99.90;;;;;;4822208;29;20467;-68
2022/04/10 00:41:31;;;;;;;9.88;1.90;;;2.10;99.90;;;;;;4807063;29;20054;-68
2022/04/10 00:44:10;;;;;;;11.27;2.13;;;2.10;99.90;;;;;;4822604;29;20458;-66
2022/04/10 00:46:37;;;;;;;11.18;1.90;;;2.10;99.90;;;;;;4807208;29;20503;-67
2022/04/10 00:49:04;;;;;;;7.75;1.98;;;2.00;99.90;;;;;;4807741;29;20051;-68
2022/04/10 00:51:52;;;;;;;7.72;1.92;;;2.00;99.90;;;;;;4822825;29;20062;-68
2022/04/10 00:54:25;;;;;;;7.05;1.77;;;2.00;99.90;;;;;;4809257;29;20129;-68
2022/04/10 00:56:51;;;;;;;9.45;2.42;;;2.00;99.90;;;;;;4825667;29;20069;-67
2022/04/10 00:59:17;;;;;;;10.35;1.80;;;2.00;99.90;;;;;;4826360;29;20059;-67
2022/04/10 01:01:44;;;;;;;11.00;2.20;;;2.00;99.90;;;;;;4825939;29;20055;-68
2022/04/10 01:04:12;;;;;;;5.72;2.03;;;2.10;99.90;;;;;;4827228;29;20111;-67
2022/04/10 01:06:38;;;;;;;10.35;2.00;;;2.20;99.90;;;;;;4810756;29;20054;-66
2022/04/10 01:09:04;;;;;;;12.43;2.42;;;2.20;99.90;;;;;;4810860;29;20407;-68
2022/04/10 01:11:30;;;;;;;12.13;2.47;;;2.30;99.90;;;;;;4827223;29;20408;-69
2022/04/10 01:13:56;;;;;;;8.32;2.47;;;2.30;99.90;;;;;;4813786;29;20059;-67
2022/04/10 01:16:22;;;;;;;11.48;2.42;;;2.30;99.90;;;;;;4808035;29;20118;-68
2022/04/10 01:18:49;;;;;;;8.30;2.13;;;2.40;99.90;;;;;;4823554;29;20058;-67
2022/04/10 01:21:25;;;;;;;9.32;1.80;;;2.40;99.90;;;;;;4807875;29;20456;-67
2022/04/10 01:23:52;;;;;;;10.82;2.20;;;2.40;99.90;;;;;;4807604;29;20054;-68
2022/04/10 01:26:18;;;;;;;13.98;3.50;;;2.40;99.90;;;;;;4822783;29;20062;-67
2022/04/10 01:29:02;;;;;;;11.90;2.95;;;2.40;99.90;;;;;;4807396;29;20620;-68
2022/04/10 01:31:29;;;;;;;12.32;2.35;;;2.50;99.90;;;;;;4810427;29;20067;-67
2022/04/10 01:33:57;;;;;;;11.70;2.10;;;2.50;99.90;;;;;;4825481;29;20043;-68
2022/04/10 01:36:29;;;;;;;14.50;2.65;;;2.50;99.90;;;;;;4809948;29;20061;-67
2022/04/10 01:38:58;;;;;;;10.20;2.58;;;2.50;99.90;;;;;;4810870;29;20141;-67
2022/04/10 01:41:26;;;;;;;11.85;2.28;;;2.40;99.90;;;;;;4810738;29;20062;-66
2022/04/10 01:43:53;;;;;;;12.80;2.80;;;2.40;99.90;;;;;;4809911;29;20054;-66
2022/04/10 01:46:19;;;;;;;8.90;2.47;;;2.50;99.90;;;;;;4825656;29;20062;-68
2022/04/10 01:48:45;;;;;;;12.98;2.47;;;2.30;99.90;;;;;;4826461;29;20058;-67
2022/04/10 01:51:11;;;;;;;10.30;2.20;;;2.40;99.90;;;;;;4826207;29;20388;-68
2022/04/10 01:53:37;;;;;;;11.32;2.30;;;2.30;99.90;;;;;;4810338;29;20062;-67
2022/04/10 01:56:04;;;;;;;12.40;2.70;;;2.30;99.90;;;;;;4826440;29;20130;-67
2022/04/10 01:58:40;;;;;;;14.52;2.30;;;2.20;99.90;;;;;;4812587;29;20069;-67
2022/04/10 02:01:08;;;;;;;8.27;2.33;;;2.20;99.90;;;;;;4807216;29;20067;-69
2022/04/10 02:03:34;;;;;;;10.63;2.90;;;2.10;99.90;;;;;;4815782;29;20464;-66
2022/04/10 02:06:00;;;;;;;11.38;2.05;;;2.10;99.90;;;;;;4825807;29;20118;-68
2022/04/10 02:08:30;;;;;;;9.43;2.28;;;2.00;99.90;;;;;;4810194;29;20050;-67
2022/04/10 02:10:55;;;;;;;11.95;2.38;;;1.90;99.90;;;;;;4810510;29;20066;-67
2022/04/10 02:13:21;;;;;;;8.75;2.30;;;1.80;99.90;;;;;;4809017;29;20050;-67
2022/04/10 02:15:47;;;;;;;9.57;1.98;;;1.70;99.90;;;;;;4810501;29;20086;-66
2022/04/10 02:18:13;;;;;;;10.38;2.25;;;1.70;99.90;;;;;;4809763;29;20215;-68
2022/04/10 02:20:38;;;;;;;10.23;2.13;;;1.60;99.90;;;;;;4806397;29;20077;-67
2022/04/10 02:23:05;;;;;;;12.35;2.30;;;1.60;99.90;;;;;;4808783;29;20047;-67
2022/04/10 02:25:30;;;;;;;10.27;2.13;;;1.50;99.90;;;;;;4825819;29;20066;-68
2022/04/10 02:27:56;;;;;;;6.85;1.92;;;1.50;99.90;;;;;;4824222;29;20060;-68
2022/04/10 02:30:22;;;;;;;9.45;2.47;;;1.50;99.90;;;;;;4826052;29;20115;-66
2022/04/10 02:32:47;;;;;;;10.70;2.85;;;1.50;99.90;;;;;;4824738;29;20089;-66
2022/04/10 02:35:13;;;;;;;11.73;2.67;;;1.50;99.90;;;;;;4808878;29;20065;-68
2022/04/10 02:37:40;;;;;;;9.80;2.63;;;1.50;99.90;;;;;;4811351;29;20077;-69
2022/04/10 02:40:07;;;;;;;11.77;1.98;;;1.50;99.90;;;;;;4808087;29;20082;-68
2022/04/10 02:42:34;;;;;;;11.98;2.90;;;1.50;99.90;;;;;;4794317;29;20059;-66
2022/04/10 02:45:01;;;;;;;11.43;1.98;;;1.50;99.90;;;;;;4810638;29;20065;-66
2022/04/10 02:47:27;;;;;;;9.63;2.13;;;1.50;99.90;;;;;;4809445;29;20131;-68
2022/04/10 02:49:52;;;;;;;8.88;2.33;;;1.50;99.90;;;;;;4825875;29;20088;-68
2022/04/10 02:52:18;;;;;;;4.93;1.85;;;1.50;99.90;;;;;;4808750;29;20492;-69
2022/04/10 02:54:44;;;;;;;14.23;2.67;;;1.50;99.90;;;;;;4824241;29;20058;-68
2022/04/10 02:57:10;;;;;;;8.93;1.90;;;1.50;99.90;;;;;;4808555;29;20069;-65
2022/04/10 02:59:36;;;;;;;14.23;2.65;;;1.40;99.90;;;;;;4825698;29;20062;-66
2022/04/10 03:02:03;;;;;;;8.98;2.33;;;1.40;99.90;;;;;;4807995;29;20080;-67
2022/04/10 03:04:28;;;;;;;12.85;2.47;;;1.40;99.90;;;;;;4824693;29;20065;-67
2022/04/10 03:06:54;;;;;;;8.35;2.33;;;1.40;99.90;;;;;;4823613;29;20054;-68
2022/04/10 03:09:19;;;;;;;15.43;2.92;;;1.50;99.90;;;;;;4810016;29;20416;-66
2022/04/10 03:11:45;;;;;;;8.45;2.42;;;1.50;99.90;;;;;;4808263;29;20488;-67
2022/04/10 03:14:10;;;;;;;17.17;2.50;;;1.50;99.90;;;;;;4806231;29;20065;-67
2022/04/10 03:16:36;;;;;;;10.30;2.22;;;1.60;99.90;;;;;;4807715;29;20396;-68
2022/04/10 03:19:03;;;;;;;8.30;1.90;;;1.60;99.90;;;;;;4807442;29;20054;-66
2022/04/10 03:21:29;;;;;;;12.15;2.15;;;1.70;99.90;;;;;;4823598;29;20050;-67
2022/04/10 03:23:54;;;;;;;9.00;2.20;;;1.60;99.90;;;;;;4792937;29;20084;-66
2022/04/10 03:26:20;;;;;;;11.38;2.30;;;1.60;99.90;;;;;;4823573;29;20062;-66
2022/04/10 03:28:46;;;;;;;8.98;2.42;;;1.70;99.90;;;;;;4809800;29;20112;-66
2022/04/10 03:31:11;;;;;;;10.15;2.35;;;1.80;99.90;;;;;;4790771;29;20469;-68
2022/04/10 03:33:37;;;;;;;8.77;2.65;;;1.80;99.90;;;;;;4805398;29;20488;-66
2022/04/10 03:36:03;;;;;;;12.80;2.05;;;1.90;99.90;;;;;;4790808;29;20485;-68
2022/04/10 03:38:28;;;;;;;9.50;2.05;;;1.90;99.90;;;;;;4805389;29;20137;-68
2022/04/10 03:40:54;;;;;;;11.30;2.17;;;1.90;99.90;;;;;;4790935;29;20059;-67
2022/04/10 03:43:20;;;;;;;10.35;2.15;;;1.90;99.90;;;;;;4803307;29;20522;-69
2022/04/10 03:45:45;;;;;;;9.50;2.10;;;1.90;99.90;;;;;;4823748;29;20499;-68
2022/04/10 03:48:11;;;;;;;10.82;2.47;;;1.90;99.90;;;;;;4808125;29;20066;-67
2022/04/10 03:50:36;;;;;;;10.82;2.30;;;1.90;99.90;;;;;;4825135;29;20456;-66
2022/04/10 03:53:04;;;;;;;10.80;1.90;;;2.10;99.90;;;;;;4808202;29;20564;-68
2022/04/10 03:55:30;;;;;;;4.70;1.35;;;2.10;99.90;;;;;;4823711;29;20138;-68
2022/04/10 03:57:56;;;;;;;6.43;2.28;;;2.10;99.90;;;;;;4804334;29;20055;-70
2022/04/10 04:00:22;;;;;;;5.68;1.48;;;2.10;99.90;;;;;;4805998;29;20473;-68
2022/04/10 04:02:47;;;;;;;4.57;1.65;;;2.10;99.90;;;;;;4804914;29;20413;-68
2022/04/10 04:05:13;;;;;;;4.72;1.27;;;2.00;99.90;;;;;;4806584;29;20055;-68
2022/04/10 04:07:40;;;;;;;5.15;1.35;;;1.90;99.90;;;;;;4819546;29;20480;-68
2022/04/10 04:10:07;;;;;;;4.65;1.27;;;2.00;99.90;;;;;;4823332;29;20054;-68
2022/04/10 04:12:36;;;;;;;6.40;1.38;;;1.90;99.90;;;;;;4817804;29;20227;-67
2022/04/10 04:15:03;;;;;;;4.07;1.23;;;1.90;99.90;;;;;;4806260;29;20058;-67
2022/04/10 04:17:29;;;;;;;3.30;1.20;;;1.80;99.90;;;;;;4789696;29;20501;-66
2022/04/10 04:19:54;;;;;;;4.47;1.58;;;1.80;99.90;;;;;;4799783;29;20548;-65
2022/04/10 04:22:20;;;;;;;4.70;1.17;;;1.80;99.90;;;;;;4823038;29;20050;-67
2022/04/10 04:24:46;;;;;;;4.47;1.30;;;1.80;99.90;;;;;;4822904;29;20118;-66
2022/04/10 04:27:11;;;;;;;4.57;1.50;;;1.80;99.90;;;;;;4808859;29;20493;-66
2022/04/10 04:29:37;;;;;;;7.15;1.23;;;1.80;99.90;;;;;;4808313;29;20065;-66
2022/04/10 04:32:04;;;;;;;4.00;1.10;;;1.80;99.90;;;;;;4807635;29;20485;-67
2022/04/10 04:34:29;;;;;;;4.90;1.30;;;1.80;99.90;;;;;;4824392;29;20131;-66
2022/04/10 04:36:55;;;;;;;2.60;1.13;;;1.80;99.90;;;;;;4823636;29;20452;-67
2022/04/10 04:39:21;;;;;;;4.43;1.40;;;1.80;99.90;;;;;;4822775;29;20054;-67
2022/04/10 04:41:46;;;;;;;5.65;1.33;;;1.80;99.90;;;;;;4823190;29;20054;-67
2022/04/10 04:44:12;;;;;;;4.50;1.10;;;1.80;99.90;;;;;;4824620;29;20055;-67
2022/04/10 04:46:37;;;;;;;3.42;1.33;;;1.80;99.90;;;;;;4822474;29;20058;-66
2022/04/10 04:49:04;;;;;;;4.32;1.65;;;1.70;99.90;;;;;;4807414;29;20046;-67
2022/04/10 04:51:34;;;;;;;5.47;1.35;;;1.70;99.90;;;;;;4822939;29;20059;-67
2022/04/10 04:54:00;;;;;;;5.07;1.70;;;1.70;99.90;;;;;;4824052;29;20192;-65
2022/04/10 04:56:26;;;;;;;6.50;1.35;;;1.60;99.90;;;;;;4821625;29;20059;-66
2022/04/10 04:58:52;;;;;;;3.60;1.10;;;1.60;99.90;;;;;;4803893;29;20054;-68
2022/04/10 05:01:17;;;;;;;4.32;1.38;;;1.60;99.90;;;;;;4811012;29;20057;-67
2022/04/10 05:03:43;;;;;;;4.75;1.30;;;1.60;99.90;;;;;;4824036;29;20407;-67
2022/04/10 05:06:08;;;;;;;5.63;1.23;;;1.70;99.90;;;;;;4805604;29;20192;-67
2022/04/10 05:08:34;;;;;;;5.07;1.50;;;1.70;99.90;;;;;;4789093;29;20051;-66
2022/04/10 05:11:00;;;;;;;5.13;1.20;;;1.70;99.90;;;;;;4821640;29;20058;-67
2022/04/10 05:13:26;;;;;;;6.63;1.55;;;1.60;99.90;;;;;;4822206;29;20443;-67
2022/04/10 05:15:52;;;;;;;6.53;1.15;;;1.60;99.90;;;;;;4822370;29;20061;-68
2022/04/10 05:18:19;;;;;;;6.85;1.50;;;1.70;99.90;;;;;;4806944;29;20531;-68
2022/04/10 05:20:48;;;;;;;5.63;1.55;;;1.70;99.90;;;;;;4823027;29;20574;-67
2022/04/10 05:23:18;;;;;;;5.80;1.35;;;1.80;99.90;;;;;;4807307;29;20066;-68
2022/04/10 05:25:43;;;;;;;5.97;2.05;;;1.80;99.90;;;;;;4822256;29;20063;-68
2022/04/10 05:28:09;;;;;;;5.15;1.88;;;1.80;99.90;;;;;;4806773;29;20081;-68
2022/04/10 05:30:35;;;;;;;9.52;2.20;;;1.80;99.90;;;;;;4822629;29;20385;-67
2022/04/10 05:33:00;;;;;;;6.75;1.90;;;1.90;99.90;;;;;;4823627;29;20121;-67
2022/04/10 05:35:26;;;;;;;9.30;2.05;;;1.90;99.90;;;;;;4804950;29;20085;-69
2022/04/10 05:37:52;;;;;;;10.90;2.28;;;2.00;99.90;;;;;;4805915;29;20057;-69
2022/04/10 05:40:17;;;;;;;10.88;1.88;;;2.10;99.90;;;;;;4806211;29;20653;-67
2022/04/10 05:42:44;;;;;;;8.85;1.92;;;2.20;99.90;;;;;;4825171;29;20081;-69
2022/04/10 05:45:10;;;;;;;10.82;2.63;;;2.30;99.90;;;;;;4826728;29;20073;-69
2022/04/10 05:47:38;;;;;;;11.35;1.83;;;2.40;99.90;;;;;;4812277;29;20046;-68
2022/04/10 05:50:04;;;;;;;7.00;1.95;;;2.50;99.90;;;;;;4823081;29;20616;-69
2022/04/10 05:52:29;;;;;;;6.00;1.70;;;2.70;99.90;;;;;;4807619;29;20500;-69
2022/04/10 05:54:59;;;;;;;5.65;1.67;;;2.90;99.90;;;;;;4810284;29;20085;-69
2022/04/10 05:57:25;;;;;;;8.10;1.50;;;3.10;99.90;;;;;;4820585;29;20536;-67
2022/04/10 05:59:51;;;;;;;3.55;1.60;;;3.20;99.90;;;;;;4829005;29;20118;-69
2022/04/10 06:02:18;;;;;;;8.10;1.67;;;3.20;99.90;;;;;;4811604;29;20050;-67
2022/04/10 06:04:44;;;;;;;4.63;1.73;;;3.20;99.90;;;;;;4818389;29;20062;-68
2022/04/10 06:07:10;;;;;;;6.22;1.40;;;3.10;99.90;;;;;;4822729;29;20085;-68
2022/04/10 06:09:36;;;;;;;4.35;1.42;;;3.00;99.90;;;;;;4830291;29;20058;-69
2022/04/10 06:12:01;;;;;;;3.92;1.30;;;2.90;99.90;;;;;;4812821;29;20046;-67
2022/04/10 06:14:27;;;;;;;3.83;1.40;;;2.90;99.90;;;;;;4826527;29;20050;-67
2022/04/10 06:16:52;;;;;;;3.92;1.50;;;2.80;99.90;;;;;;4808515;29;20058;-68
2022/04/10 06:19:19;;;;;;;5.28;1.65;;;2.90;99.90;;;;;;4825409;29;20086;-68
2022/04/10 06:21:45;;;;;;;7.18;1.60;;;3.00;99.90;;;;;;4825901;29;20077;-68
2022/04/10 06:24:11;;;;;;;4.60;1.90;;;3.10;99.90;;;;;;4809163;29;20207;-67
2022/04/10 06:26:36;;;;;;;5.95;1.95;;;3.20;99.90;;;;;;4808268;29;20054;-66
2022/04/10 06:29:02;;;;;;;6.28;2.17;;;3.50;99.90;;;;;;4825685;29;20057;-67
2022/04/10 06:31:28;;;;;;;6.60;2.25;;;3.70;99.90;;;;;;4819554;29;20063;-69
2022/04/10 06:33:56;;;;;;;4.35;2.10;;;3.90;99.90;;;;;;4791469;29;20055;-68
2022/04/10 06:36:22;;;;;;;4.95;2.05;;;3.90;99.90;;;;;;4807189;29;20506;-67
2022/04/10 06:38:49;;;;;;;2.72;1.52;;;4.00;99.90;;;;;;4808988;29;20061;-67
2022/04/10 06:41:15;;;;;;;4.18;1.30;;;4.00;99.90;;;;;;4825250;29;20077;-67
2022/04/10 06:43:41;;;;;;;3.80;1.70;;;4.00;99.90;;;;;;4825126;29;20058;-68
2022/04/10 06:46:07;;;;;;;8.98;1.50;;;4.00;99.90;;;;;;4822512;29;20134;-67
2022/04/10 06:48:35;;;;;;;5.10;1.60;;;4.10;99.90;;;;;;4809224;29;20065;-66
2022/04/10 06:51:01;;;;;;;6.65;1.75;;;4.10;99.90;;;;;;4825126;29;20062;-67
2022/04/10 06:53:26;;;;;;;4.07;1.88;;;4.10;99.90;;;;;;4812897;29;20041;-67
2022/04/10 06:55:52;;;;;;;5.40;1.63;;;4.30;99.90;;;;;;4809143;29;20506;-66
2022/04/10 06:58:19;;;;;;;3.88;1.48;;;4.30;99.90;;;;;;4808911;29;20053;-67
2022/04/10 07:00:45;;;;;;;4.28;1.50;;;4.40;99.90;;;;;;4807904;29;20062;-68
2022/04/10 07:03:11;;;;;;;3.55;1.35;;;4.40;99.90;;;;;;4822436;29;20058;-66
2022/04/10 07:05:37;;;;;;;5.50;1.70;;;4.50;99.90;;;;;;4820239;29;20107;-68
2022/04/10 07:08:03;;;;;;;9.70;2.00;;;4.70;99.90;;;;;;4808735;29;20058;-67
2022/04/10 07:10:29;;;;;;;7.00;1.60;;;4.80;99.90;;;;;;4824149;29;20058;-69
2022/04/10 07:12:54;;;;;;;4.32;1.70;;;4.90;99.90;;;;;;4807777;29;20073;-66
2022/04/10 07:15:20;;;;;;;6.15;2.35;;;5.10;99.90;;;;;;4813901;29;20505;-67
2022/04/10 07:17:46;;;;;;;2.92;1.73;;;5.20;99.90;;;;;;4807493;29;20114;-70
2022/04/10 07:20:11;;;;;;;2.88;1.80;;;5.40;99.90;;;;;;4808888;29;20203;-69
2022/04/10 07:25:22;;;;;;;7.35;1.60;;;5.60;99.90;;;;;;4808619;29;20468;-69
2022/04/10 07:27:47;;;;;;;5.35;1.98;;;5.60;99.90;;;;;;4824474;29;20062;-69
2022/04/10 07:30:13;;;;;;;4.82;1.55;;;5.70;99.90;;;;;;4824098;29;20110;-69
2022/04/10 07:32:39;;;;;;;6.35;1.85;;;5.70;99.90;;;;;;4824949;29;20126;-66
2022/04/10 07:35:05;;;;;;;7.97;2.05;;;5.90;99.90;;;;;;4823890;29;20126;-67
2022/04/10 07:37:31;;;;;;;5.38;1.65;;;5.90;99.90;;;;;;4809765;29;20153;-67
2022/04/10 07:39:57;;;;;;;7.10;2.25;;;6.10;99.90;;;;;;4790140;29;20050;-67
2022/04/10 07:42:23;;;;;;;5.13;1.55;;;6.30;99.90;;;;;;4805893;29;20062;-68
2022/04/10 07:44:49;;;;;;;4.05;1.58;;;6.40;99.90;;;;;;4789583;29;20050;-70
2022/04/10 07:47:27;;;;;;;6.53;1.98;;;6.50;99.90;;;;;;4808144;29;20137;-68
2022/04/10 07:49:56;;;;;;;6.32;1.70;;;6.50;99.90;;;;;;4808372;29;20129;-69
2022/04/10 07:52:23;;;;;;;7.07;2.25;;;6.40;99.90;;;;;;4823502;29;20066;-68
2022/04/10 07:54:49;;;;;;;5.78;1.60;;;6.50;99.90;;;;;;4824729;29;20084;-68
2022/04/10 07:57:16;;;;;;;4.80;1.70;;;6.60;99.90;;;;;;4807700;29;20420;-68
2022/04/10 07:59:42;;;;;;;7.50;1.90;;;6.80;99.90;;;;;;4823432;29;20067;-68
2022/04/10 08:02:08;;;;;;;6.20;1.33;;;6.80;99.90;;;;;;4807437;29;20054;-66
2022/04/10 08:04:34;;;;;;;5.38;1.70;;;6.80;99.90;;;;;;4824816;29;20054;-69
2022/04/10 08:07:00;;;;;;;6.63;1.70;;;6.80;99.90;;;;;;4823332;29;20058;-67
2022/04/10 08:09:25;;;;;;;7.32;1.50;;;6.80;99.90;;;;;;4824075;29;20089;-68
2022/04/10 08:11:51;;;;;;;4.93;2.00;;;6.80;99.90;;;;;;4806730;29;20108;-67
2022/04/10 08:14:17;;;;;;;6.20;1.67;;;6.90;99.90;;;;;;4822966;29;20156;-68
2022/04/10 08:16:43;;;;;;;6.57;1.83;;;7.10;99.90;;;;;;4807454;29;20057;-68
2022/04/10 08:19:09;;;;;;;6.93;1.70;;;7.30;99.90;;;;;;4807768;29;20063;-67
2022/04/10 08:21:34;;;;;;;7.80;1.73;;;7.40;99.90;;;;;;4808146;29;20107;-67
2022/04/10 08:24:00;;;;;;;5.10;1.63;;;7.30;99.90;;;;;;4815460;29;20524;-68
2022/04/10 08:26:25;;;;;;;6.65;2.20;;;7.20;99.90;;;;;;4792758;29;20133;-67
2022/04/10 08:28:51;;;;;;;6.78;1.67;;;7.10;99.90;;;;;;4824058;29;20062;-69
2022/04/10 08:31:16;;;;;;;8.32;1.88;;;7.00;99.90;;;;;;4807820;29;20477;-67
2022/04/10 08:33:42;;;;;;;9.95;1.90;;;7.10;99.90;;;;;;4807600;29;20162;-67
2022/04/10 08:36:08;;;;;;;9.70;1.95;;;7.10;99.90;;;;;;4824324;29;20064;-67
2022/04/10 08:38:34;;;;;;;8.65;2.13;;;7.30;99.90;;;;;;4823949;29;20623;-68
2022/04/10 08:41:01;;;;;;;6.10;1.67;;;7.40;99.90;;;;;;4807050;29;20076;-68
2022/04/10 08:43:28;;;;;;;6.40;2.25;;;7.50;99.90;;;;;;4814412;29;20107;-68
2022/04/10 08:45:58;;;;;;;6.30;2.03;;;7.60;99.90;;;;;;4807185;29;20061;-67
2022/04/10 08:48:27;;;;;;;11.52;1.75;;;7.80;99.90;;;;;;4807113;29;20142;-68
2022/04/10 08:50:57;;;;;;;6.00;1.50;;;8.00;99.90;;;;;;4809532;29;20397;-67
2022/04/10 08:53:24;;;;;;;9.25;2.15;;;8.10;99.90;;;;;;4774618;29;20103;-69
2022/04/10 08:55:50;;;;;;;6.70;1.52;;;8.10;99.90;;;;;;4822323;29;20369;-67
2022/04/10 08:58:17;;;;;;;4.97;1.73;;;7.80;99.90;;;;;;4807272;29;20127;-68
2022/04/10 09:00:44;;;;;;;5.85;1.63;;;7.30;99.90;;;;;;4823786;29;20065;-68
2022/04/10 09:03:09;;;;;;;4.32;1.73;;;7.00;99.90;;;;;;4820382;29;20058;-68
2022/04/10 09:05:35;;;;;;;5.93;1.83;;;6.80;99.90;;;;;;4807982;29;20054;-68
2022/04/10 09:08:11;;;;;;;5.93;1.50;;;6.60;99.90;;;;;;4822567;29;20175;-68
2022/04/10 09:10:58;;;;;;;7.80;1.98;;;6.60;99.90;;;;;;4806164;29;20061;-68
2022/04/10 09:13:32;;;;;;;11.48;1.92;;;6.80;99.90;;;;;;4804506;29;20059;-67
2022/04/10 09:16:23;;;;;;;6.97;1.95;;;7.00;99.90;;;;;;4820534;29;20106;-68
2022/04/10 09:18:58;;;;;;;9.73;1.70;;;7.30;99.90;;;;;;4808982;29;20058;-69
2022/04/10 09:21:30;;;;;;;8.10;1.88;;;7.50;99.90;;;;;;4826859;29;20054;-69
2022/04/10 09:24:02;;;;;;;;;;;7.70;99.90;;;;;;4811372;29;20062;-67
2022/04/10 09:26:41;;;;;;;8.50;1.90;;;7.90;99.90;;;;;;4810888;29;20371;-67
2022/04/10 09:29:07;;;;;;;4.28;1.35;;;8.10;99.90;;;;;;4810618;29;20058;-68
2022/04/10 09:31:34;;;;;;;9.32;1.90;;;8.10;99.90;;;;;;4810307;29;20068;-67
2022/04/10 09:34:04;;;;;;;7.15;1.20;;;8.20;99.90;;;;;;4826581;29;20058;-69
2022/04/10 09:36:40;;;;;;;10.05;1.92;;;8.20;99.90;;;;;;4809639;29;20062;-67
2022/04/10 09:39:26;;;;;;;7.45;1.92;;;8.40;99.90;;;;;;4826807;29;20066;-67
2022/04/10 09:42:02;;;;;;;5.28;1.35;;;8.50;99.90;;;;;;4809189;29;20131;-68
2022/04/10 09:44:32;;;;;;;9.13;1.55;;;8.80;99.90;;;;;;4810141;29;20038;-68
2022/04/10 09:47:06;;;;;;;5.03;1.48;;;9.00;99.90;;;;;;4805063;29;20058;-66
2022/04/10 09:49:34;;;;;;;4.85;1.20;;;9.10;99.90;;;;;;4808309;29;20192;-67
2022/04/10 09:52:01;;;;;;;6.63;1.30;;;9.10;99.90;;;;;;4809812;29;20096;-70
2022/04/10 09:54:32;;;;;;;9.52;1.63;;;9.00;99.90;;;;;;4810185;29;20092;-68
2022/04/10 09:57:01;;;;;;;4.45;1.42;;;8.90;99.90;;;;;;4809479;29;20058;-69
2022/04/10 09:59:30;;;;;;;2.72;0.80;;;9.10;99.90;;;;;;4810292;29;20062;-67
2022/04/10 10:01:56;;;;;;;4.88;1.60;;;9.20;99.90;;;;;;4807379;29;20061;-68
2022/04/10 10:04:23;;;;;;;4.75;1.13;;;9.20;99.90;;;;;;4826104;29;20051;-68
2022/04/10 10:06:49;;;;;;;2.97;1.05;;;9.20;99.90;;;;;;4802666;29;20050;-69
2022/04/10 10:09:16;;;;;;;7.65;1.42;;;9.40;99.90;;;;;;4821597;29;20054;-69
2022/04/10 10:11:42;;;;;;;5.93;1.02;;;9.30;99.90;;;;;;4822206;29;20043;-68
2022/04/10 10:14:08;;;;;;;4.68;1.55;;;9.00;99.90;;;;;;4826434;29;20356;-68
2022/04/10 10:16:35;;;;;;;5.65;1.60;;;8.60;99.90;;;;;;4826245;29;20050;-69
2022/04/10 10:19:01;;;;;;;6.90;1.67;;;8.40;99.90;;;;;;4810707;29;20069;-69
2022/04/10 10:21:27;;;;;;;5.43;1.17;;;8.10;99.90;;;;;;4809688;29;20107;-68
2022/04/10 10:23:54;;;;;;;4.30;1.02;;;8.00;99.90;;;;;;4809146;29;20062;-67
2022/04/10 10:26:38;;;;;;;5.43;1.60;;;8.10;99.90;;;;;;4824413;29;20046;-68
2022/04/10 10:29:41;;;;;;;7.22;1.35;;;8.30;99.90;;;;;;4806475;29;20062;-69
2022/04/10 10:32:16;;;;;;;5.15;1.40;;;8.50;99.90;;;;;;4820432;29;20081;-69
2022/04/10 10:34:43;;;;;;;5.38;1.60;;;8.60;99.90;;;;;;4814561;29;20058;-70
2022/04/10 10:37:11;;;;;;;7.55;1.52;;;8.80;99.90;;;;;;4800628;29;20149;-68
2022/04/10 10:39:49;;;;;;;7.55;1.55;;;8.90;99.90;;;;;;4825239;29;20050;-68
2022/04/10 10:42:15;;;;;;;3.95;1.50;;;9.10;99.90;;;;;;4806818;29;20481;-68
2022/04/10 10:44:43;;;;;;;4.60;1.30;;;9.10;99.90;;;;;;4808066;29;20122;-70
2022/04/10 10:47:24;;;;;;;6.88;1.60;;;9.20;99.90;;;;;;4807380;29;20402;-69
2022/04/10 10:49:52;;;;;;;7.80;1.52;;;9.40;99.90;;;;;;4808920;29;20115;-69
2022/04/10 10:52:18;;;;;;;4.75;1.25;;;9.70;99.90;;;;;;4809069;29;20396;-69
2022/04/10 10:54:53;;;;;;;8.60;1.60;;;9.70;99.90;;;;;;4809103;29;20061;-68
2022/04/10 10:57:28;;;;;;;5.07;1.40;;;9.60;99.90;;;;;;4824913;29;20499;-68
2022/04/10 11:00:06;;;;;;;4.53;1.48;;;9.60;99.90;;;;;;4825273;29;20178;-68
2022/04/10 11:02:35;;;;;;;6.68;1.67;;;9.40;99.90;;;;;;4808542;29;20125;-67
2022/04/10 11:05:08;;;;;;;5.72;1.13;;;9.40;99.90;;;;;;4825567;29;20365;-66
2022/04/10 11:07:39;;;;;;;4.53;1.20;;;9.40;99.90;;;;;;4807711;29;20054;-67
2022/04/10 11:10:10;;;;;;;3.50;1.10;;;9.40;99.90;;;;;;4808334;29;20046;-66
2022/04/10 11:12:52;;;;;;;2.67;1.20;;;9.60;99.90;;;;;;4807863;29;20512;-69
2022/04/10 11:15:28;;;;;;;3.97;1.30;;;9.90;99.90;;;;;;4822662;29;20049;-67
2022/04/10 11:17:54;;;;;;;5.03;1.50;;;10.20;99.90;;;;;;4807133;29;20396;-67
2022/04/10 11:20:21;;;;;;;3.42;1.50;;;10.20;99.90;;;;;;4824090;29;20054;-70
2022/04/10 11:22:57;;;;;;;2.90;1.08;;;10.30;99.90;;;;;;4807658;29;20046;-69
2022/04/10 11:25:39;;;;;;;5.57;1.42;;;10.30;99.90;;;;;;4825015;29;20534;-68
2022/04/10 11:28:08;;;;;;;5.32;1.50;;;10.10;99.90;;;;;;4804852;29;20051;-69
2022/04/10 11:30:46;;;;;;;3.90;1.23;;;9.90;99.90;;;;;;4808685;29;20134;-68
2022/04/10 11:33:13;;;;;;;4.15;1.00;;;9.80;99.90;;;;;;4790584;29;20051;-68
2022/04/10 11:35:41;;;;;;;6.35;1.15;;;9.90;99.90;;;;;;4806902;29;20062;-68
2022/04/10 11:38:17;;;;;;;3.13;1.08;;;10.10;99.90;;;;;;4805936;29;20088;-67
2022/04/10 11:40:50;;;;;;;5.47;1.00;;;10.40;99.90;;;;;;4790638;29;20129;-66
2022/04/10 11:43:17;;;;;;;3.97;1.00;;;10.00;99.90;;;;;;4818810;29;20059;-68
2022/04/10 11:45:44;;;;;;;5.70;1.80;;;9.60;99.90;;;;;;4808241;29;20106;-68
2022/04/10 11:48:11;;;;;;;5.88;1.60;;;9.30;99.90;;;;;;4823492;29;20221;-68
2022/04/10 11:50:37;;;;;;;3.97;1.17;;;9.10;99.90;;;;;;4823679;29;20059;-68
2022/04/10 11:53:08;;;;;;;14.15;3.58;;;9.00;99.90;;;;;;4818055;29;20051;-69
2022/04/10 11:55:36;;;;;;;5.93;1.70;;;8.80;99.90;;;;;;4801451;29;20131;-69
2022/04/10 11:58:19;;;;;;;4.32;1.42;;;8.80;99.90;;;;;;4822434;29;20058;-67
2022/04/10 12:00:55;;;;;;;5.72;1.83;;;8.90;99.90;;;;;;4810693;29;20396;-67
2022/04/10 12:03:22;;;;;;;7.07;1.60;;;9.20;99.90;;;;;;4824952;29;20104;-69
2022/04/10 12:05:49;;;;;;;4.57;1.20;;;9.40;99.90;;;;;;4808338;29;20119;-69
2022/04/10 12:08:16;;;;;;;6.03;1.05;;;9.70;99.90;;;;;;4807436;29;20180;-67
2022/04/10 12:10:51;;;;;;;7.53;1.92;;;10.10;99.90;;;;;;4823843;29;20153;-68
2022/04/10 12:13:17;;;;;;;5.53;1.30;;;10.20;99.90;;;;;;4821622;29;20148;-68
2022/04/10 12:15:42;;;;;;;6.78;1.48;;;9.90;99.90;;;;;;4807914;29;20149;-68
2022/04/10 12:18:10;;;;;;;4.32;1.48;;;9.80;99.90;;;;;;4824088;29;20085;-68
2022/04/10 12:20:37;;;;;;;3.88;1.08;;;9.70;99.90;;;;;;4824315;29;20060;-65
2022/04/10 12:23:15;;;;;;;6.35;1.40;;;9.70;99.90;;;;;;4823375;29;20058;-65
2022/04/10 12:25:41;;;;;;;3.38;1.30;;;9.80;99.90;;;;;;4822913;29;20073;-65
2022/04/10 12:28:06;;;;;;;7.55;1.70;;;10.00;99.90;;;;;;4823794;29;20058;-65
2022/04/10 12:30:33;;;;;;;3.13;1.10;;;10.00;99.90;;;;;;4806975;29;20058;-65
2022/04/10 12:32:59;;;;;;;2.72;1.25;;;9.90;99.90;;;;;;4807108;29;20133;-66
2022/04/10 12:35:24;;;;;;;3.95;1.00;;;10.00;99.90;;;;;;4807602;29;20137;-65
2022/04/10 12:38:03;;;;;;;3.60;0.93;;;10.10;99.90;;;;;;4807329;29;20065;-66
2022/04/10 12:40:29;;;;;;;3.67;0.90;;;10.40;99.90;;;;;;4822711;29;20058;-66
2022/04/10 12:42:59;;;;;;;3.20;1.00;;;10.70;99.90;;;;;;4807037;29;20057;-65
2022/04/10 12:45:29;;;;;;;4.32;1.15;;;10.90;99.90;;;;;;4823219;29;20066;-66
2022/04/10 12:47:54;;;;;;;5.22;1.00;;;10.90;99.90;;;;;;4807034;29;20050;-66
2022/04/10 12:50:23;;;;;;;3.15;0.82;;;10.90;99.90;;;;;;4813729;29;20131;-65
2022/04/10 12:52:52;;;;;;;3.97;1.27;;;10.60;98.80;;;;;;4812531;29;20057;-67
2022/04/10 12:55:27;;;;;;;2.63;1.23;;;10.40;99.90;;;;;;4814099;29;20208;-69
2022/04/10 12:58:03;;;;;;;4.53;1.48;;;10.40;99.90;;;;;;4828378;29;20462;-68
2022/04/10 13:00:34;;;;;;;3.13;1.00;;;10.60;99.90;;;;;;4828126;29;20129;-68